sensor_id;sensor_type;location;lat;lon;timestamp;temperature;humidity
18083;DHT22;9168;51.194;6.840;2023-09-19T00:00:07;16.90;99.90
18083;DHT22;9168;51.194;6.840;2023-09-19T00:02:34;16.90;99.90
18083;DHT22;9168;51.194;6.840;2023-09-19T00:05:02;16.90;99.90
18083;DHT22;9168;51.194;6.840;2023-09-19T00:07:30;16.90;99.90
18083;DHT22;9168;51.194;6.840;2023-09-19T00:09:57;16.90;99.90
18083;DHT22;9168;51.194;6.840;2023-09-19T00:12:24;16.90;99.90
18083;DHT22;9168;51.194;6.840;2023-09-19T00:14:52;16.90;99.90
18083;DHT22;9168;51.194;6.840;2023-09-19T00:17:19;16.90;99.90
18083;DHT22;9168;51.194;6.840;2023-09-19T00:19:47;16.80;99.90
18083;DHT22;9168;51.194;6.840;2023-09-19T00:22:17;16.90;99.90
18083;DHT22;9168;51.194;6.840;2023-09-19T00:24:44;16.90;99.90
18083;DHT22;9168;51.194;6.840;2023-09-19T00:27:11;16.90;99.90
18083;DHT22;9168;51.194;6.840;2023-09-19T00:29:38;16.80;99.90
18083;DHT22;9168;51.194;6.840;2023-09-19T00:32:07;16.90;99.90
18083;DHT22;9168;51.194;6.840;2023-09-19T00:34:34;16.90;99.90
18083;DHT22;9168;51.194;6.840;2023-09-19T00:37:01;16.90;99.90
18083;DHT22;9168;51.194;6.840;2023-09-19T00:39:29;16.90;99.90
18083;DHT22;9168;51.194;6.840;2023-09-19T00:41:57;16.90;99.90
18083;DHT22;9168;51.194;6.840;2023-09-19T00:44:24;16.80;99.90
18083;DHT22;9168;51.194;6.840;2023-09-19T00:46:52;16.80;99.90
18083;DHT22;9168;51.194;6.840;2023-09-19T00:49:21;16.80;99.90
18083;DHT22;9168;51.194;6.840;2023-09-19T00:51:48;16.80;99.90
18083;DHT22;9168;51.194;6.840;2023-09-19T00:54:16;16.80;99.90
18083;DHT22;9168;51.194;6.840;2023-09-19T00:56:45;16.80;99.90
18083;DHT22;9168;51.194;6.840;2023-09-19T00:59:14;16.80;99.90
18083;DHT22;9168;51.194;6.840;2023-09-19T01:01:42;16.70;99.90
18083;DHT22;9168;51.194;6.840;2023-09-19T01:04:11;16.70;99.90
18083;DHT22;9168;51.194;6.840;2023-09-19T01:06:40;16.80;99.90
18083;DHT22;9168;51.194;6.840;2023-09-19T01:09:07;16.80;99.90
18083;DHT22;9168;51.194;6.840;2023-09-19T01:11:39;16.80;99.90
18083;DHT22;9168;51.194;6.840;2023-09-19T01:14:15;16.80;99.90
18083;DHT22;9168;51.194;6.840;2023-09-19T01:16:53;16.80;99.90
18083;DHT22;9168;51.194;6.840;2023-09-19T01:22:36;16.80;99.90
18083;DHT22;9168;51.194;6.840;2023-09-19T01:28:30;16.80;99.90
18083;DHT22;9168;51.194;6.840;2023-09-19T01:31:04;16.70;99.90
18083;DHT22;9168;51.194;6.840;2023-09-19T01:33:54;16.70;99.90
18083;DHT22;9168;51.194;6.840;2023-09-19T01:36:23;16.70;99.90
18083;DHT22;9168;51.194;6.840;2023-09-19T01:38:50;16.70;99.90
18083;DHT22;9168;51.194;6.840;2023-09-19T01:41:23;16.70;99.90
18083;DHT22;9168;51.194;6.840;2023-09-19T01:43:52;16.70;99.90
18083;DHT22;9168;51.194;6.840;2023-09-19T01:46:24;16.70;99.90
18083;DHT22;9168;51.194;6.840;2023-09-19T01:49:04;16.70;99.90
18083;DHT22;9168;51.194;6.840;2023-09-19T01:51:34;16.60;99.90
18083;DHT22;9168;51.194;6.840;2023-09-19T01:54:08;16.60;99.90
18083;DHT22;9168;51.194;6.840;2023-09-19T01:56:46;16.60;99.90
18083;DHT22;9168;51.194;6.840;2023-09-19T01:59:27;16.70;99.90
18083;DHT22;9168;51.194;6.840;2023-09-19T02:01:58;16.70;99.90
18083;DHT22;9168;51.194;6.840;2023-09-19T02:04:26;16.70;99.90
18083;DHT22;9168;51.194;6.840;2023-09-19T02:06:54;16.70;99.90
18083;DHT22;9168;51.194;6.840;2023-09-19T02:09:21;16.70;99.90
18083;DHT22;9168;51.194;6.840;2023-09-19T02:11:48;16.70;99.90
18083;DHT22;9168;51.194;6.840;2023-09-19T02:14:15;16.70;99.90
18083;DHT22;9168;51.194;6.840;2023-09-19T02:16:42;16.60;99.90
18083;DHT22;9168;51.194;6.840;2023-09-19T02:19:10;16.60;99.90
18083;DHT22;9168;51.194;6.840;2023-09-19T02:21:37;16.60;99.90
18083;DHT22;9168;51.194;6.840;2023-09-19T02:24:06;16.60;99.90
18083;DHT22;9168;51.194;6.840;2023-09-19T02:26:35;16.60;99.90
18083;DHT22;9168;51.194;6.840;2023-09-19T02:29:02;16.60;99.90
18083;DHT22;9168;51.194;6.840;2023-09-19T02:31:30;16.60;99.90
18083;DHT22;9168;51.194;6.840;2023-09-19T02:33:57;16.50;99.90
18083;DHT22;9168;51.194;6.840;2023-09-19T02:36:27;16.50;99.90
18083;DHT22;9168;51.194;6.840;2023-09-19T02:38:55;16.50;99.90
18083;DHT22;9168;51.194;6.840;2023-09-19T02:41:22;16.50;99.90
18083;DHT22;9168;51.194;6.840;2023-09-19T02:43:49;16.40;99.90
18083;DHT22;9168;51.194;6.840;2023-09-19T02:46:16;16.40;99.90
18083;DHT22;9168;51.194;6.840;2023-09-19T02:48:43;16.40;99.90
18083;DHT22;9168;51.194;6.840;2023-09-19T02:51:10;16.30;99.90
18083;DHT22;9168;51.194;6.840;2023-09-19T02:53:38;16.40;99.90
18083;DHT22;9168;51.194;6.840;2023-09-19T02:56:05;16.40;99.90
18083;DHT22;9168;51.194;6.840;2023-09-19T02:58:32;16.40;99.90
18083;DHT22;9168;51.194;6.840;2023-09-19T03:01:08;16.40;99.90
18083;DHT22;9168;51.194;6.840;2023-09-19T03:03:35;16.30;99.90
18083;DHT22;9168;51.194;6.840;2023-09-19T03:06:03;16.30;99.90
18083;DHT22;9168;51.194;6.840;2023-09-19T03:08:30;16.30;99.90
18083;DHT22;9168;51.194;6.840;2023-09-19T03:10:58;16.30;99.90
18083;DHT22;9168;51.194;6.840;2023-09-19T03:13:26;16.30;99.90
18083;DHT22;9168;51.194;6.840;2023-09-19T03:15:54;16.30;99.90
18083;DHT22;9168;51.194;6.840;2023-09-19T03:18:22;16.30;99.90
18083;DHT22;9168;51.194;6.840;2023-09-19T03:20:54;16.30;99.90
18083;DHT22;9168;51.194;6.840;2023-09-19T03:23:21;16.20;99.90
18083;DHT22;9168;51.194;6.840;2023-09-19T03:25:48;16.20;99.90
18083;DHT22;9168;51.194;6.840;2023-09-19T03:28:17;16.20;99.90
18083;DHT22;9168;51.194;6.840;2023-09-19T03:30:45;16.10;99.90
18083;DHT22;9168;51.194;6.840;2023-09-19T03:33:12;16.10;99.90
18083;DHT22;9168;51.194;6.840;2023-09-19T03:35:39;16.10;99.90
18083;DHT22;9168;51.194;6.840;2023-09-19T03:38:06;16.10;99.90
18083;DHT22;9168;51.194;6.840;2023-09-19T03:40:33;16.20;99.90
18083;DHT22;9168;51.194;6.840;2023-09-19T03:43:03;16.20;99.90
18083;DHT22;9168;51.194;6.840;2023-09-19T03:45:31;16.20;99.90
18083;DHT22;9168;51.194;6.840;2023-09-19T03:48:00;16.20;99.90
18083;DHT22;9168;51.194;6.840;2023-09-19T03:50:27;16.20;99.90
18083;DHT22;9168;51.194;6.840;2023-09-19T03:52:56;16.20;99.90
18083;DHT22;9168;51.194;6.840;2023-09-19T03:55:23;16.10;99.90
18083;DHT22;9168;51.194;6.840;2023-09-19T03:57:50;16.10;99.90
18083;DHT22;9168;51.194;6.840;2023-09-19T04:00:18;16.10;99.90
18083;DHT22;9168;51.194;6.840;2023-09-19T04:02:48;16.00;99.90
18083;DHT22;9168;51.194;6.840;2023-09-19T04:05:15;16.10;99.90
18083;DHT22;9168;51.194;6.840;2023-09-19T04:07:42;16.10;99.90
18083;DHT22;9168;51.194;6.840;2023-09-19T04:10:09;16.10;99.90
18083;DHT22;9168;51.194;6.840;2023-09-19T04:12:37;16.10;99.90
18083;DHT22;9168;51.194;6.840;2023-09-19T04:15:05;16.10;99.90
18083;DHT22;9168;51.194;6.840;2023-09-19T04:17:32;16.10;99.90
18083;DHT22;9168;51.194;6.840;2023-09-19T04:20:01;16.10;99.90
18083;DHT22;9168;51.194;6.840;2023-09-19T04:22:30;16.00;99.90
18083;DHT22;9168;51.194;6.840;2023-09-19T04:24:56;16.00;99.90
18083;DHT22;9168;51.194;6.840;2023-09-19T04:27:23;16.00;99.90
18083;DHT22;9168;51.194;6.840;2023-09-19T04:29:50;16.00;99.90
18083;DHT22;9168;51.194;6.840;2023-09-19T04:32:18;16.00;99.90
18083;DHT22;9168;51.194;6.840;2023-09-19T04:34:45;16.00;99.90
18083;DHT22;9168;51.194;6.840;2023-09-19T04:37:17;16.10;99.90
18083;DHT22;9168;51.194;6.840;2023-09-19T04:39:44;16.10;99.90
18083;DHT22;9168;51.194;6.840;2023-09-19T04:42:12;16.10;99.90
18083;DHT22;9168;51.194;6.840;2023-09-19T04:44:40;16.10;99.90
18083;DHT22;9168;51.194;6.840;2023-09-19T04:47:08;16.00;99.90
18083;DHT22;9168;51.194;6.840;2023-09-19T04:49:37;16.00;99.90
18083;DHT22;9168;51.194;6.840;2023-09-19T04:52:05;16.00;99.90
18083;DHT22;9168;51.194;6.840;2023-09-19T04:54:34;16.00;99.90
18083;DHT22;9168;51.194;6.840;2023-09-19T04:57:00;16.00;99.90
18083;DHT22;9168;51.194;6.840;2023-09-19T04:59:27;16.00;99.90
18083;DHT22;9168;51.194;6.840;2023-09-19T05:01:54;16.00;99.90
18083;DHT22;9168;51.194;6.840;2023-09-19T05:04:22;16.00;99.90
18083;DHT22;9168;51.194;6.840;2023-09-19T05:06:48;16.00;99.90
18083;DHT22;9168;51.194;6.840;2023-09-19T05:09:16;16.00;99.90
18083;DHT22;9168;51.194;6.840;2023-09-19T05:11:46;16.00;99.90
18083;DHT22;9168;51.194;6.840;2023-09-19T05:14:14;16.00;99.90
18083;DHT22;9168;51.194;6.840;2023-09-19T05:16:41;16.00;99.90
18083;DHT22;9168;51.194;6.840;2023-09-19T05:19:08;16.00;99.90
18083;DHT22;9168;51.194;6.840;2023-09-19T05:21:37;16.00;99.90
18083;DHT22;9168;51.194;6.840;2023-09-19T05:24:05;16.00;99.90
18083;DHT22;9168;51.194;6.840;2023-09-19T05:26:32;16.00;99.90
18083;DHT22;9168;51.194;6.840;2023-09-19T05:29:00;16.00;99.90
18083;DHT22;9168;51.194;6.840;2023-09-19T05:31:30;16.00;99.90
18083;DHT22;9168;51.194;6.840;2023-09-19T05:33:57;16.00;99.90
18083;DHT22;9168;51.194;6.840;2023-09-19T05:36:26;16.00;99.90
18083;DHT22;9168;51.194;6.840;2023-09-19T05:38:55;16.00;99.90
18083;DHT22;9168;51.194;6.840;2023-09-19T05:41:22;16.10;99.90
18083;DHT22;9168;51.194;6.840;2023-09-19T05:43:49;16.20;99.90
18083;DHT22;9168;51.194;6.840;2023-09-19T05:46:18;16.20;99.90
18083;DHT22;9168;51.194;6.840;2023-09-19T05:48:45;16.20;99.90
18083;DHT22;9168;51.194;6.840;2023-09-19T05:51:13;16.20;99.90
18083;DHT22;9168;51.194;6.840;2023-09-19T05:53:40;16.20;99.90
18083;DHT22;9168;51.194;6.840;2023-09-19T05:56:09;16.20;99.90
18083;DHT22;9168;51.194;6.840;2023-09-19T05:58:36;16.30;99.90
18083;DHT22;9168;51.194;6.840;2023-09-19T06:01:04;16.30;99.90
18083;DHT22;9168;51.194;6.840;2023-09-19T06:03:34;16.30;99.90
18083;DHT22;9168;51.194;6.840;2023-09-19T06:06:01;16.30;99.90
18083;DHT22;9168;51.194;6.840;2023-09-19T06:08:28;16.30;99.90
18083;DHT22;9168;51.194;6.840;2023-09-19T06:10:56;16.30;99.90
18083;DHT22;9168;51.194;6.840;2023-09-19T06:13:23;16.40;99.90
18083;DHT22;9168;51.194;6.840;2023-09-19T06:15:52;16.30;99.90
18083;DHT22;9168;51.194;6.840;2023-09-19T06:18:19;16.40;99.90
18083;DHT22;9168;51.194;6.840;2023-09-19T06:20:48;16.40;99.90
18083;DHT22;9168;51.194;6.840;2023-09-19T06:23:16;16.40;99.90
18083;DHT22;9168;51.194;6.840;2023-09-19T06:25:45;16.30;99.90
18083;DHT22;9168;51.194;6.840;2023-09-19T06:28:12;16.30;99.90
18083;DHT22;9168;51.194;6.840;2023-09-19T06:30:40;16.40;99.90
18083;DHT22;9168;51.194;6.840;2023-09-19T06:33:07;16.40;99.90
18083;DHT22;9168;51.194;6.840;2023-09-19T06:35:37;16.40;99.90
18083;DHT22;9168;51.194;6.840;2023-09-19T06:38:05;16.50;99.90
18083;DHT22;9168;51.194;6.840;2023-09-19T06:40:34;16.50;99.90
18083;DHT22;9168;51.194;6.840;2023-09-19T06:43:01;16.50;99.90
18083;DHT22;9168;51.194;6.840;2023-09-19T06:45:29;16.40;99.90
18083;DHT22;9168;51.194;6.840;2023-09-19T06:47:57;16.40;99.90
18083;DHT22;9168;51.194;6.840;2023-09-19T06:50:25;16.40;99.90
18083;DHT22;9168;51.194;6.840;2023-09-19T06:52:54;16.40;99.90
18083;DHT22;9168;51.194;6.840;2023-09-19T06:55:24;16.30;99.90
18083;DHT22;9168;51.194;6.840;2023-09-19T06:57:53;16.40;99.90
18083;DHT22;9168;51.194;6.840;2023-09-19T07:00:20;16.40;99.90
18083;DHT22;9168;51.194;6.840;2023-09-19T07:02:55;16.30;99.90
18083;DHT22;9168;51.194;6.840;2023-09-19T07:05:23;16.30;99.90
18083;DHT22;9168;51.194;6.840;2023-09-19T07:07:50;16.40;99.90
18083;DHT22;9168;51.194;6.840;2023-09-19T07:10:17;16.40;99.90
18083;DHT22;9168;51.194;6.840;2023-09-19T07:12:47;16.40;99.90
18083;DHT22;9168;51.194;6.840;2023-09-19T07:15:14;16.40;99.90
18083;DHT22;9168;51.194;6.840;2023-09-19T07:17:40;16.50;99.90
18083;DHT22;9168;51.194;6.840;2023-09-19T07:20:08;16.40;99.90
18083;DHT22;9168;51.194;6.840;2023-09-19T07:22:36;16.40;99.90
18083;DHT22;9168;51.194;6.840;2023-09-19T07:25:05;16.40;99.90
18083;DHT22;9168;51.194;6.840;2023-09-19T07:27:32;16.50;99.90
18083;DHT22;9168;51.194;6.840;2023-09-19T07:30:00;16.50;99.90
18083;DHT22;9168;51.194;6.840;2023-09-19T07:32:27;16.50;99.90
18083;DHT22;9168;51.194;6.840;2023-09-19T07:34:54;16.60;99.90
18083;DHT22;9168;51.194;6.840;2023-09-19T07:37:21;16.60;99.90
18083;DHT22;9168;51.194;6.840;2023-09-19T07:39:51;16.50;99.90
18083;DHT22;9168;51.194;6.840;2023-09-19T07:42:18;16.50;99.90
18083;DHT22;9168;51.194;6.840;2023-09-19T07:44:45;16.60;99.90
18083;DHT22;9168;51.194;6.840;2023-09-19T07:47:16;16.70;99.90
18083;DHT22;9168;51.194;6.840;2023-09-19T07:49:46;16.80;99.90
18083;DHT22;9168;51.194;6.840;2023-09-19T07:52:13;16.80;99.90
18083;DHT22;9168;51.194;6.840;2023-09-19T07:54:41;16.90;99.90
18083;DHT22;9168;51.194;6.840;2023-09-19T07:57:10;16.90;99.90
18083;DHT22;9168;51.194;6.840;2023-09-19T07:59:37;16.90;99.90
18083;DHT22;9168;51.194;6.840;2023-09-19T08:02:07;17.00;99.90
18083;DHT22;9168;51.194;6.840;2023-09-19T08:04:36;16.90;99.90
18083;DHT22;9168;51.194;6.840;2023-09-19T08:07:03;17.00;99.90
18083;DHT22;9168;51.194;6.840;2023-09-19T08:09:31;17.00;99.90
18083;DHT22;9168;51.194;6.840;2023-09-19T08:11:59;17.00;99.90
18083;DHT22;9168;51.194;6.840;2023-09-19T08:14:29;17.10;99.90
18083;DHT22;9168;51.194;6.840;2023-09-19T08:16:57;17.20;99.90
18083;DHT22;9168;51.194;6.840;2023-09-19T08:19:24;17.20;99.90
18083;DHT22;9168;51.194;6.840;2023-09-19T08:21:56;17.30;99.90
18083;DHT22;9168;51.194;6.840;2023-09-19T08:24:25;17.30;99.90
18083;DHT22;9168;51.194;6.840;2023-09-19T08:26:53;17.40;99.90
18083;DHT22;9168;51.194;6.840;2023-09-19T08:29:21;17.40;99.90
18083;DHT22;9168;51.194;6.840;2023-09-19T08:31:53;17.50;99.90
18083;DHT22;9168;51.194;6.840;2023-09-19T08:34:21;17.60;99.90
18083;DHT22;9168;51.194;6.840;2023-09-19T08:36:50;17.60;99.90
18083;DHT22;9168;51.194;6.840;2023-09-19T08:39:19;17.60;99.90
18083;DHT22;9168;51.194;6.840;2023-09-19T08:41:46;17.70;99.90
18083;DHT22;9168;51.194;6.840;2023-09-19T08:44:13;17.70;99.90
18083;DHT22;9168;51.194;6.840;2023-09-19T08:46:41;17.70;99.90
18083;DHT22;9168;51.194;6.840;2023-09-19T08:49:16;17.70;99.90
18083;DHT22;9168;51.194;6.840;2023-09-19T08:51:53;17.80;99.90
18083;DHT22;9168;51.194;6.840;2023-09-19T08:54:25;17.90;99.90
18083;DHT22;9168;51.194;6.840;2023-09-19T08:56:56;17.90;99.90
18083;DHT22;9168;51.194;6.840;2023-09-19T08:59:25;18.00;99.90
18083;DHT22;9168;51.194;6.840;2023-09-19T09:01:55;18.00;99.90
18083;DHT22;9168;51.194;6.840;2023-09-19T09:04:23;18.20;99.90
18083;DHT22;9168;51.194;6.840;2023-09-19T09:06:51;18.30;99.90
18083;DHT22;9168;51.194;6.840;2023-09-19T09:09:20;18.20;99.90
18083;DHT22;9168;51.194;6.840;2023-09-19T09:11:50;18.30;99.90
18083;DHT22;9168;51.194;6.840;2023-09-19T09:14:19;18.40;99.90
18083;DHT22;9168;51.194;6.840;2023-09-19T09:16:47;18.40;99.90
18083;DHT22;9168;51.194;6.840;2023-09-19T09:19:15;18.40;99.90
18083;DHT22;9168;51.194;6.840;2023-09-19T09:21:49;18.50;99.90
18083;DHT22;9168;51.194;6.840;2023-09-19T09:24:29;18.60;99.90
18083;DHT22;9168;51.194;6.840;2023-09-19T09:27:02;18.70;99.90
18083;DHT22;9168;51.194;6.840;2023-09-19T09:29:44;18.70;99.90
18083;DHT22;9168;51.194;6.840;2023-09-19T09:32:26;18.70;99.90
18083;DHT22;9168;51.194;6.840;2023-09-19T09:35:00;18.70;99.90
18083;DHT22;9168;51.194;6.840;2023-09-19T09:37:30;18.70;99.90
18083;DHT22;9168;51.194;6.840;2023-09-19T09:39:59;18.80;99.90
18083;DHT22;9168;51.194;6.840;2023-09-19T09:42:46;18.80;99.90
18083;DHT22;9168;51.194;6.840;2023-09-19T09:45:17;18.90;99.90
18083;DHT22;9168;51.194;6.840;2023-09-19T09:47:54;18.90;99.90
18083;DHT22;9168;51.194;6.840;2023-09-19T09:50:26;18.90;99.90
18083;DHT22;9168;51.194;6.840;2023-09-19T09:52:55;19.00;99.90
18083;DHT22;9168;51.194;6.840;2023-09-19T09:55:29;18.90;99.90
18083;DHT22;9168;51.194;6.840;2023-09-19T09:58:18;18.80;99.90
18083;DHT22;9168;51.194;6.840;2023-09-19T10:00:55;19.00;99.90
18083;DHT22;9168;51.194;6.840;2023-09-19T10:03:35;19.00;99.90
18083;DHT22;9168;51.194;6.840;2023-09-19T10:06:09;19.20;99.90
18083;DHT22;9168;51.194;6.840;2023-09-19T10:09:03;19.30;99.90
18083;DHT22;9168;51.194;6.840;2023-09-19T10:11:41;19.40;99.90
18083;DHT22;9168;51.194;6.840;2023-09-19T10:14:11;19.40;99.90
18083;DHT22;9168;51.194;6.840;2023-09-19T10:16:43;19.40;99.90
18083;DHT22;9168;51.194;6.840;2023-09-19T10:19:15;19.40;99.90
18083;DHT22;9168;51.194;6.840;2023-09-19T10:21:44;19.50;99.90
18083;DHT22;9168;51.194;6.840;2023-09-19T10:24:11;19.50;99.90
18083;DHT22;9168;51.194;6.840;2023-09-19T10:26:42;19.60;99.90
18083;DHT22;9168;51.194;6.840;2023-09-19T10:29:13;19.70;99.90
18083;DHT22;9168;51.194;6.840;2023-09-19T10:31:42;19.60;99.90
18083;DHT22;9168;51.194;6.840;2023-09-19T10:34:14;19.70;99.90
18083;DHT22;9168;51.194;6.840;2023-09-19T10:36:44;19.80;99.90
18083;DHT22;9168;51.194;6.840;2023-09-19T10:39:14;20.00;99.90
18083;DHT22;9168;51.194;6.840;2023-09-19T10:41:49;20.40;99.90
18083;DHT22;9168;51.194;6.840;2023-09-19T10:44:23;20.70;99.90
18083;DHT22;9168;51.194;6.840;2023-09-19T10:46:51;21.00;99.90
18083;DHT22;9168;51.194;6.840;2023-09-19T10:49:19;21.20;99.90
18083;DHT22;9168;51.194;6.840;2023-09-19T10:51:48;21.50;99.90
18083;DHT22;9168;51.194;6.840;2023-09-19T10:54:18;21.70;99.90
18083;DHT22;9168;51.194;6.840;2023-09-19T10:56:48;22.20;99.90
18083;DHT22;9168;51.194;6.840;2023-09-19T10:59:17;22.50;99.90
18083;DHT22;9168;51.194;6.840;2023-09-19T11:01:47;23.10;99.90
18083;DHT22;9168;51.194;6.840;2023-09-19T11:04:24;23.60;99.90
18083;DHT22;9168;51.194;6.840;2023-09-19T11:07:02;23.70;99.90
18083;DHT22;9168;51.194;6.840;2023-09-19T11:09:46;23.80;99.90
18083;DHT22;9168;51.194;6.840;2023-09-19T11:18:54;25.20;99.90
18083;DHT22;9168;51.194;6.840;2023-09-19T11:24:28;24.80;99.90
18083;DHT22;9168;51.194;6.840;2023-09-19T11:27:13;24.80;99.90
18083;DHT22;9168;51.194;6.840;2023-09-19T11:29:42;24.80;99.90
18083;DHT22;9168;51.194;6.840;2023-09-19T11:32:10;25.40;99.90
18083;DHT22;9168;51.194;6.840;2023-09-19T11:34:43;25.90;99.90
18083;DHT22;9168;51.194;6.840;2023-09-19T11:40:33;26.50;99.90
18083;DHT22;9168;51.194;6.840;2023-09-19T11:43:32;26.80;99.90
18083;DHT22;9168;51.194;6.840;2023-09-19T11:46:07;26.60;99.90
18083;DHT22;9168;51.194;6.840;2023-09-19T11:48:41;26.90;99.90
18083;DHT22;9168;51.194;6.840;2023-09-19T11:51:13;27.30;99.90
18083;DHT22;9168;51.194;6.840;2023-09-19T11:53:46;27.50;99.90
18083;DHT22;9168;51.194;6.840;2023-09-19T11:56:16;27.50;99.90
18083;DHT22;9168;51.194;6.840;2023-09-19T11:58:44;27.70;99.90
18083;DHT22;9168;51.194;6.840;2023-09-19T12:01:13;27.90;99.90
18083;DHT22;9168;51.194;6.840;2023-09-19T12:03:47;28.40;99.90
18083;DHT22;9168;51.194;6.840;2023-09-19T12:06:16;28.00;99.90
18083;DHT22;9168;51.194;6.840;2023-09-19T12:08:44;27.70;99.90
18083;DHT22;9168;51.194;6.840;2023-09-19T12:11:13;27.50;99.90
18083;DHT22;9168;51.194;6.840;2023-09-19T12:13:42;28.00;99.90
18083;DHT22;9168;51.194;6.840;2023-09-19T12:16:15;28.20;99.90
18083;DHT22;9168;51.194;6.840;2023-09-19T12:18:44;28.10;99.00
18083;DHT22;9168;51.194;6.840;2023-09-19T12:21:27;28.30;99.50
18083;DHT22;9168;51.194;6.840;2023-09-19T12:24:13;28.10;98.70
18083;DHT22;9168;51.194;6.840;2023-09-19T12:26:43;28.60;99.10
18083;DHT22;9168;51.194;6.840;2023-09-19T12:29:15;28.80;97.80
18083;DHT22;9168;51.194;6.840;2023-09-19T12:31:48;28.90;97.90
18083;DHT22;9168;51.194;6.840;2023-09-19T12:34:16;28.90;97.20
18083;DHT22;9168;51.194;6.840;2023-09-19T12:36:46;29.10;97.10
18083;DHT22;9168;51.194;6.840;2023-09-19T12:39:23;29.20;96.50
18083;DHT22;9168;51.194;6.840;2023-09-19T12:41:52;28.70;96.50
18083;DHT22;9168;51.194;6.840;2023-09-19T12:44:20;28.60;95.90
18083;DHT22;9168;51.194;6.840;2023-09-19T12:46:50;28.50;95.90
18083;DHT22;9168;51.194;6.840;2023-09-19T12:49:18;28.20;96.50
18083;DHT22;9168;51.194;6.840;2023-09-19T12:51:47;28.30;96.40
18083;DHT22;9168;51.194;6.840;2023-09-19T12:54:15;28.40;97.10
18083;DHT22;9168;51.194;6.840;2023-09-19T12:56:43;28.00;96.50
18083;DHT22;9168;51.194;6.840;2023-09-19T12:59:12;27.30;96.70
18083;DHT22;9168;51.194;6.840;2023-09-19T13:01:40;26.80;97.50
18083;DHT22;9168;51.194;6.840;2023-09-19T13:04:16;26.70;97.60
18083;DHT22;9168;51.194;6.840;2023-09-19T13:06:46;26.70;97.60
18083;DHT22;9168;51.194;6.840;2023-09-19T13:09:15;26.20;97.60
18083;DHT22;9168;51.194;6.840;2023-09-19T13:11:42;26.20;99.00
18083;DHT22;9168;51.194;6.840;2023-09-19T13:14:18;26.20;98.60
18083;DHT22;9168;51.194;6.840;2023-09-19T13:16:56;26.10;98.60
18083;DHT22;9168;51.194;6.840;2023-09-19T13:19:40;26.20;99.80
18083;DHT22;9168;51.194;6.840;2023-09-19T13:22:38;25.70;98.70
18083;DHT22;9168;51.194;6.840;2023-09-19T13:25:08;25.50;98.90
18083;DHT22;9168;51.194;6.840;2023-09-19T13:27:40;24.80;99.70
18083;DHT22;9168;51.194;6.840;2023-09-19T13:30:08;24.40;99.90
18083;DHT22;9168;51.194;6.840;2023-09-19T13:32:35;24.00;99.90
18083;DHT22;9168;51.194;6.840;2023-09-19T13:35:03;23.90;99.90
18083;DHT22;9168;51.194;6.840;2023-09-19T13:37:34;23.90;99.90
18083;DHT22;9168;51.194;6.840;2023-09-19T13:40:03;23.90;99.90
18083;DHT22;9168;51.194;6.840;2023-09-19T13:42:31;24.10;99.90
18083;DHT22;9168;51.194;6.840;2023-09-19T13:44:57;24.10;99.90
18083;DHT22;9168;51.194;6.840;2023-09-19T13:47:25;23.80;99.90
18083;DHT22;9168;51.194;6.840;2023-09-19T13:49:52;23.60;99.90
18083;DHT22;9168;51.194;6.840;2023-09-19T13:52:19;23.20;99.90
18083;DHT22;9168;51.194;6.840;2023-09-19T13:54:47;22.80;99.90
18083;DHT22;9168;51.194;6.840;2023-09-19T13:57:16;22.70;99.90
18083;DHT22;9168;51.194;6.840;2023-09-19T13:59:43;22.30;99.90
18083;DHT22;9168;51.194;6.840;2023-09-19T14:02:10;22.20;99.90
18083;DHT22;9168;51.194;6.840;2023-09-19T14:04:39;22.20;99.90
18083;DHT22;9168;51.194;6.840;2023-09-19T14:07:06;22.00;99.90
18083;DHT22;9168;51.194;6.840;2023-09-19T14:09:34;21.90;99.90
18083;DHT22;9168;51.194;6.840;2023-09-19T14:12:01;21.90;99.90
18083;DHT22;9168;51.194;6.840;2023-09-19T14:14:29;21.70;99.90
18083;DHT22;9168;51.194;6.840;2023-09-19T14:16:56;21.70;99.90
18083;DHT22;9168;51.194;6.840;2023-09-19T14:19:26;21.60;99.90
18083;DHT22;9168;51.194;6.840;2023-09-19T14:21:53;21.50;99.90
18083;DHT22;9168;51.194;6.840;2023-09-19T14:24:21;21.60;99.90
18083;DHT22;9168;51.194;6.840;2023-09-19T14:26:48;21.50;99.90
18083;DHT22;9168;51.194;6.840;2023-09-19T14:29:16;21.40;99.90
18083;DHT22;9168;51.194;6.840;2023-09-19T14:31:44;21.50;99.90
18083;DHT22;9168;51.194;6.840;2023-09-19T14:34:11;21.50;99.90
18083;DHT22;9168;51.194;6.840;2023-09-19T14:36:38;21.60;99.90
18083;DHT22;9168;51.194;6.840;2023-09-19T14:39:05;21.70;99.90
18083;DHT22;9168;51.194;6.840;2023-09-19T14:41:33;22.00;99.90
18083;DHT22;9168;51.194;6.840;2023-09-19T14:44:02;22.10;99.90
18083;DHT22;9168;51.194;6.840;2023-09-19T14:46:29;22.30;99.90
18083;DHT22;9168;51.194;6.840;2023-09-19T14:48:57;22.20;99.90
18083;DHT22;9168;51.194;6.840;2023-09-19T14:51:25;22.10;99.90
18083;DHT22;9168;51.194;6.840;2023-09-19T14:53:53;21.90;99.90
18083;DHT22;9168;51.194;6.840;2023-09-19T14:56:20;21.90;99.90
18083;DHT22;9168;51.194;6.840;2023-09-19T14:58:47;21.60;99.90
18083;DHT22;9168;51.194;6.840;2023-09-19T15:01:14;21.60;99.90
18083;DHT22;9168;51.194;6.840;2023-09-19T15:03:42;21.40;99.90
18083;DHT22;9168;51.194;6.840;2023-09-19T15:06:11;21.30;99.90
18083;DHT22;9168;51.194;6.840;2023-09-19T15:08:41;21.20;99.90
18083;DHT22;9168;51.194;6.840;2023-09-19T15:11:11;21.00;99.90
18083;DHT22;9168;51.194;6.840;2023-09-19T15:13:38;20.90;99.90
18083;DHT22;9168;51.194;6.840;2023-09-19T15:16:07;21.00;99.90
18083;DHT22;9168;51.194;6.840;2023-09-19T15:18:36;21.00;99.90
18083;DHT22;9168;51.194;6.840;2023-09-19T15:21:05;21.00;99.90
18083;DHT22;9168;51.194;6.840;2023-09-19T15:23:34;21.10;99.90
18083;DHT22;9168;51.194;6.840;2023-09-19T15:26:02;20.90;99.90
18083;DHT22;9168;51.194;6.840;2023-09-19T15:28:29;20.80;99.90
18083;DHT22;9168;51.194;6.840;2023-09-19T15:30:58;20.70;99.90
18083;DHT22;9168;51.194;6.840;2023-09-19T15:33:25;20.70;99.90
18083;DHT22;9168;51.194;6.840;2023-09-19T15:36:00;20.70;99.90
18083;DHT22;9168;51.194;6.840;2023-09-19T15:38:28;20.70;99.90
18083;DHT22;9168;51.194;6.840;2023-09-19T15:40:56;20.60;99.90
18083;DHT22;9168;51.194;6.840;2023-09-19T15:43:23;20.50;99.90
18083;DHT22;9168;51.194;6.840;2023-09-19T15:45:50;20.50;99.90
18083;DHT22;9168;51.194;6.840;2023-09-19T15:48:17;20.50;99.90
18083;DHT22;9168;51.194;6.840;2023-09-19T15:50:47;20.50;99.90
18083;DHT22;9168;51.194;6.840;2023-09-19T15:53:14;20.60;99.90
18083;DHT22;9168;51.194;6.840;2023-09-19T15:55:42;20.60;99.90
18083;DHT22;9168;51.194;6.840;2023-09-19T15:58:12;20.70;99.90
18083;DHT22;9168;51.194;6.840;2023-09-19T16:00:40;20.70;99.90
18083;DHT22;9168;51.194;6.840;2023-09-19T16:03:07;20.80;99.90
18083;DHT22;9168;51.194;6.840;2023-09-19T16:05:38;20.60;99.90
18083;DHT22;9168;51.194;6.840;2023-09-19T16:08:05;20.60;99.90
18083;DHT22;9168;51.194;6.840;2023-09-19T16:10:34;20.50;99.90
18083;DHT22;9168;51.194;6.840;2023-09-19T16:13:02;20.50;99.90
18083;DHT22;9168;51.194;6.840;2023-09-19T16:15:31;20.40;99.90
18083;DHT22;9168;51.194;6.840;2023-09-19T16:17:58;20.40;99.90